Time;durP1;ratioP1;P1;durP2;ratioP2;P2;SDS_P1;SDS_P2;PMS_P1;PMS_P2;Temp;Humidity;BMP_temperature;BMP_pressure;BME280_temperature;BME280_humidity;BME280_pressure;Samples;Min_cycle;Max_cycle;Signal;HPM_P1;HPM_P2
2021/04/04 00:01:57;;;;;;;5.13;1.77;;;;;;;1.66;52.91;96183.84;5031654;28;20586;-71
2021/04/04 00:04:22;;;;;;;5.43;2.23;;;;;;;1.60;52.60;96184.19;5031309;28;20716;-71
2021/04/04 00:06:48;;;;;;;4.37;1.87;;;;;;;1.57;52.99;96184.31;5030547;28;20232;-71
2021/04/04 00:09:19;;;;;;;4.60;1.80;;;;;;;1.50;53.22;96186.34;5030419;28;20170;-71
2021/04/04 00:11:44;;;;;;;4.60;2.00;;;;;;;1.46;53.74;96189.16;5030492;28;20183;-71
2021/04/04 00:14:09;;;;;;;5.23;1.60;;;;;;;1.40;54.10;96195.38;5030303;28;20253;-71
2021/04/04 00:16:34;;;;;;;7.30;2.17;;;;;;;1.33;54.40;96186.38;5031387;28;20600;-71
2021/04/04 00:19:00;;;;;;;4.77;2.20;;;;;;;1.30;53.81;96189.91;5031602;28;20715;-71
2021/04/04 00:21:25;;;;;;;3.73;1.80;;;;;;;1.32;53.94;96194.94;5030322;28;20184;-71
2021/04/04 00:23:50;;;;;;;8.07;2.03;;;;;;;1.27;54.01;96192.63;5030178;28;20195;-71
2021/04/04 00:26:16;;;;;;;7.27;2.13;;;;;;;1.22;54.44;96186.88;5031679;28;20206;-71
2021/04/04 00:28:41;;;;;;;3.63;2.13;;;;;;;1.19;55.21;96191.34;5031355;28;20176;-71
2021/04/04 00:31:06;;;;;;;5.33;2.00;;;;;;;1.14;55.57;96186.44;5031387;28;20741;-71
2021/04/04 00:33:32;;;;;;;3.17;1.80;;;;;;;1.09;55.82;96193.53;5031274;28;20233;-71
2021/04/04 00:35:57;;;;;;;5.43;2.10;;;;;;;1.04;55.44;96196.28;5031084;28;20177;-71
2021/04/04 00:38:23;;;;;;;6.17;2.20;;;;;;;0.99;56.36;96185.47;5030132;28;20313;-71
2021/04/04 00:40:48;;;;;;;4.20;1.93;;;;;;;0.95;56.40;96193.34;5030131;28;20175;-71
2021/04/04 00:43:13;;;;;;;6.80;2.43;;;;;;;0.96;56.44;96189.88;5030070;28;20195;-71
2021/04/04 00:45:40;;;;;;;5.60;2.13;;;;;;;0.91;56.47;96186.72;5013158;28;20632;-71
2021/04/04 00:48:06;;;;;;;4.20;2.10;;;;;;;0.88;56.60;96191.97;5029885;28;20179;-71
2021/04/04 00:50:34;;;;;;;4.43;1.70;;;;;;;0.85;56.31;96187.84;5013453;28;20229;-71
2021/04/04 00:53:00;;;;;;;5.87;2.03;;;;;;;0.83;57.06;96184.53;5046591;28;20812;-71
2021/04/04 00:55:25;;;;;;;2.73;1.83;;;;;;;0.81;56.80;96181.22;5029518;28;20265;-71
2021/04/04 00:57:52;;;;;;;5.17;2.00;;;;;;;0.76;56.79;96178.88;5046513;28;20519;-71
2021/04/04 01:00:20;;;;;;;4.27;1.93;;;;;;;0.74;57.06;96175.56;5031214;28;20543;-71
2021/04/04 01:02:46;;;;;;;5.10;2.00;;;;;;;0.73;56.60;96176.47;5046337;28;20194;-71
2021/04/04 01:05:16;;;;;;;4.20;1.50;;;;;;;0.73;57.07;96173.94;5030844;28;20635;-71
2021/04/04 01:07:44;;;;;;;8.77;2.20;;;;;;;0.74;56.98;96173.03;5023941;28;20621;-71
2021/04/04 01:10:11;;;;;;;4.70;2.43;;;;;;;0.75;56.65;96171.28;5013050;28;20264;-71
2021/04/04 01:12:53;;;;;;;6.10;2.37;;;;;;;0.75;56.96;96167.00;4997168;28;20282;-71
2021/04/04 01:15:47;;;;;;;5.13;2.90;;;;;;;0.78;56.71;96171.13;5013824;28;20600;-71
2021/04/04 01:18:43;;;;;;;7.57;2.50;;;;;;;0.76;57.36;96172.94;5013930;28;20182;-71
2021/04/04 01:21:17;;;;;;;6.63;2.47;;;;;;;0.68;57.75;96163.06;5007616;28;20202;-71
2021/04/04 01:24:01;;;;;;;4.87;2.07;;;;;;;0.71;57.23;96168.06;5013661;28;20285;-71
2021/04/04 01:26:52;;;;;;;5.37;2.47;;;;;;;0.67;57.45;96171.66;5013610;28;20189;-71
2021/04/04 01:29:22;;;;;;;4.90;2.90;;;;;;;0.63;58.39;96169.31;5013571;28;20175;-71
2021/04/04 01:31:50;;;;;;;4.47;2.67;;;;;;;0.60;58.64;96172.81;5013548;28;20175;-71
2021/04/04 01:34:17;;;;;;;6.00;2.23;;;;;;;0.56;58.46;96171.34;5014614;28;20207;-71
2021/04/04 01:36:43;;;;;;;6.40;2.73;;;;;;;0.55;58.40;96175.63;5013549;28;20182;-71
2021/04/04 01:39:11;;;;;;;4.33;2.50;;;;;;;0.52;58.28;96162.13;5013596;28;20171;-71
2021/04/04 01:41:40;;;;;;;4.27;2.17;;;;;;;0.52;58.55;96173.19;5013421;28;20187;-71
2021/04/04 01:44:08;;;;;;;5.63;2.43;;;;;;;0.50;58.95;96169.88;4996666;28;20207;-72
2021/04/04 01:46:34;;;;;;;5.30;3.07;;;;;;;0.47;59.06;96171.75;5013061;28;20178;-71
2021/04/04 01:49:00;;;;;;;6.23;2.50;;;;;;;0.46;58.94;96162.44;5013365;28;20534;-71
2021/04/04 01:51:27;;;;;;;7.03;2.70;;;;;;;0.42;59.33;96156.63;5013308;28;20432;-71
2021/04/04 01:53:54;;;;;;;6.50;2.30;;;;;;;0.42;59.10;96154.06;5013160;28;20195;-71
2021/04/04 01:56:20;;;;;;;6.37;2.40;;;;;;;0.40;59.10;96153.31;5013029;28;20175;-72
2021/04/04 01:58:46;;;;;;;5.57;2.33;;;;;;;0.40;59.21;96150.75;5013065;28;20258;-71
2021/04/04 02:01:12;;;;;;;4.60;2.40;;;;;;;0.47;58.97;96147.03;5013020;28;20205;-71
2021/04/04 02:03:38;;;;;;;4.93;2.10;;;;;;;0.48;58.97;96145.31;5014142;28;20245;-71
2021/04/04 02:06:04;;;;;;;7.93;2.60;;;;;;;0.43;59.25;96142.13;5012754;28;20203;-71
2021/04/04 02:08:29;;;;;;;7.37;2.47;;;;;;;0.39;59.46;96143.19;4996758;28;20190;-72
2021/04/04 02:10:56;;;;;;;7.70;2.73;;;;;;;0.37;59.20;96147.53;5012745;28;20172;-71
2021/04/04 02:13:23;;;;;;;4.90;2.33;;;;;;;0.37;59.44;96144.97;5012740;28;20357;-71
2021/04/04 02:15:48;;;;;;;4.93;2.40;;;;;;;0.32;59.82;96146.91;5012495;28;20171;-71
2021/04/04 02:18:14;;;;;;;3.63;2.40;;;;;;;0.32;59.97;96146.91;5012930;28;20525;-71
2021/04/04 02:20:39;;;;;;;7.13;2.80;;;;;;;0.31;60.16;96152.94;5012529;28;20257;-71
2021/04/04 02:23:08;;;;;;;6.53;2.73;;;;;;;0.25;60.48;96151.47;5013126;28;20222;-71
2021/04/04 02:25:33;;;;;;;8.87;2.97;;;;;;;0.22;60.83;96149.06;5012071;28;20199;-71
2021/04/04 02:27:59;;;;;;;8.27;2.60;;;;;;;0.20;60.59;96149.13;5012724;28;20185;-71
2021/04/04 02:30:24;;;;;;;4.73;2.63;;;;;;;0.14;60.97;96141.75;5013590;28;20714;-71
2021/04/04 02:32:58;;;;;;;6.07;2.50;;;;;;;0.11;60.95;96136.78;5013701;28;20206;-71
2021/04/04 02:35:31;;;;;;;6.47;3.17;;;;;;;0.11;61.46;96138.53;4995861;28;20206;-71
2021/04/04 02:37:59;;;;;;;4.97;2.90;;;;;;;0.12;61.09;96133.34;5012183;28;20175;-71
2021/04/04 02:40:26;;;;;;;5.10;2.87;;;;;;;0.09;61.42;96138.59;5012496;28;20547;-71
2021/04/04 02:42:52;;;;;;;6.53;2.53;;;;;;;0.11;61.07;96139.34;5012184;28;20200;-71
2021/04/04 02:45:18;;;;;;;4.80;2.87;;;;;;;0.07;61.12;96137.81;5011823;28;20291;-71
2021/04/04 02:47:56;;;;;;;6.23;2.33;;;;;;;0.06;61.37;96138.72;5012064;28;20262;-71
2021/04/04 02:50:22;;;;;;;7.33;3.00;;;;;;;0.05;61.72;96138.78;4995688;28;20597;-71
2021/04/04 02:52:48;;;;;;;7.47;2.27;;;;;;;0.02;61.73;96137.22;5011801;28;20195;-71
2021/04/04 02:55:16;;;;;;;8.83;2.53;;;;;;;0.01;61.63;96127.06;5011789;28;20178;-72
2021/04/04 02:57:41;;;;;;;8.00;2.83;;;;;;;-0.04;61.89;96133.19;5011955;28;20261;-71
2021/04/04 03:00:08;;;;;;;7.80;2.20;;;;;;;-0.07;61.63;96129.97;5011990;28;20647;-71
2021/04/04 03:02:36;;;;;;;8.97;2.60;;;;;;;-0.09;62.09;96131.72;5013106;28;20679;-72
2021/04/04 03:05:02;;;;;;;6.77;2.53;;;;;;;-0.13;62.99;96128.50;4994927;28;20265;-72
2021/04/04 03:07:28;;;;;;;3.33;2.13;;;;;;;-0.07;62.64;96132.50;4995407;28;20183;-72
2021/04/04 03:09:54;;;;;;;7.50;2.83;;;;;;;-0.13;62.59;96130.22;4995360;28;20230;-72
2021/04/04 03:12:25;;;;;;;4.23;2.43;;;;;;;-0.13;62.60;96125.94;5011546;28;20362;-72
2021/04/04 03:14:51;;;;;;;4.70;2.47;;;;;;;-0.17;62.83;96126.16;5011332;28;20183;-72
2021/04/04 03:17:17;;;;;;;6.43;2.70;;;;;;;-0.20;62.83;96133.94;5011599;28;20179;-72
2021/04/04 03:19:44;;;;;;;5.60;2.53;;;;;;;-0.23;62.92;96129.00;5011770;28;20252;-72
2021/04/04 03:22:10;;;;;;;6.03;2.90;;;;;;;-0.27;62.81;96133.38;5011785;28;20186;-72
2021/04/04 03:24:35;;;;;;;4.73;2.57;;;;;;;-0.29;62.93;96136.00;5011213;28;20218;-72
2021/04/04 03:27:01;;;;;;;6.17;2.93;;;;;;;-0.29;63.07;96135.19;5011519;28;20651;-72
2021/04/04 03:29:28;;;;;;;5.00;2.30;;;;;;;-0.35;62.94;96141.41;5012586;28;20179;-72
2021/04/04 03:31:55;;;;;;;5.03;2.63;;;;;;;-0.34;62.88;96137.13;5011359;28;20175;-72
2021/04/04 03:34:21;;;;;;;8.40;3.00;;;;;;;-0.33;63.51;96137.06;5009865;28;20190;-72
2021/04/04 03:36:48;;;;;;;4.97;2.47;;;;;;;-0.40;63.18;96135.66;5011261;28;20233;-72
2021/04/04 03:39:13;;;;;;;9.97;3.13;;;;;;;-0.35;62.63;96138.84;4994908;28;20265;-72
2021/04/04 03:41:39;;;;;;;4.13;2.50;;;;;;;-0.41;63.02;96139.09;5012449;28;20178;-72
2021/04/04 03:44:05;;;;;;;4.43;2.23;;;;;;;-0.41;62.69;96135.72;4994442;28;20234;-72
2021/04/04 03:46:33;;;;;;;5.63;2.50;;;;;;;-0.41;62.66;96136.56;5012665;28;20274;-72
2021/04/04 03:49:00;;;;;;;5.10;2.43;;;;;;;-0.42;63.13;96136.63;5010992;28;20175;-72
2021/04/04 03:51:27;;;;;;;5.97;2.67;;;;;;;-0.39;63.51;96139.88;5010996;28;20171;-72
2021/04/04 03:53:54;;;;;;;5.77;2.47;;;;;;;-0.43;63.14;96137.53;4994555;28;20195;-72
2021/04/04 03:56:27;;;;;;;8.10;2.43;;;;;;;-0.48;63.57;96136.88;5010752;28;20175;-72
2021/04/04 03:58:54;;;;;;;4.27;2.70;;;;;;;-0.44;63.01;96140.94;4994470;28;20216;-72
2021/04/04 04:01:22;;;;;;;5.07;2.70;;;;;;;-0.48;63.56;96139.44;4994360;28;20269;-72
2021/04/04 04:03:48;;;;;;;6.30;2.73;;;;;;;-0.50;63.87;96131.03;5010861;28;20223;-72
2021/04/04 04:06:13;;;;;;;5.30;2.83;;;;;;;-0.47;63.50;96125.78;5010517;28;20252;-72
2021/04/04 04:08:40;;;;;;;6.43;2.93;;;;;;;-0.49;63.45;96127.56;5010845;28;20201;-72
2021/04/04 04:11:08;;;;;;;6.10;3.23;;;;;;;-0.55;63.75;96132.94;5012306;28;20631;-72
2021/04/04 04:13:34;;;;;;;7.17;2.73;;;;;;;-0.57;64.24;96133.00;5011698;28;20210;-72
2021/04/04 04:16:00;;;;;;;9.40;3.00;;;;;;;-0.57;64.76;96131.28;5011537;28;20203;-72
2021/04/04 04:18:25;;;;;;;4.40;2.60;;;;;;;-0.60;64.30;96130.59;5010683;28;20210;-72
2021/04/04 04:20:50;;;;;;;7.90;2.97;;;;;;;-0.59;65.02;96132.25;5011983;28;20181;-72
2021/04/04 04:23:16;;;;;;;4.23;2.77;;;;;;;-0.67;64.95;96136.84;5010546;28;20212;-72
2021/04/04 04:25:42;;;;;;;5.93;3.33;;;;;;;-0.74;65.36;96127.78;5010232;28;20229;-72
2021/04/04 04:28:09;;;;;;;5.27;2.70;;;;;;;-0.78;64.89;96128.84;5010450;28;20178;-72
2021/04/04 04:30:35;;;;;;;7.40;3.57;;;;;;;-0.80;65.47;96123.75;5010380;28;20310;-72
2021/04/04 04:33:06;;;;;;;5.57;3.20;;;;;;;-0.81;66.32;96126.38;5010423;28;20199;-72
2021/04/04 04:35:33;;;;;;;7.50;3.20;;;;;;;-0.82;65.60;96129.84;4977704;28;20230;-72
2021/04/04 04:37:59;;;;;;;7.20;3.07;;;;;;;-0.79;65.66;96120.34;4994246;28;20190;-72
2021/04/04 04:40:25;;;;;;;5.13;3.17;;;;;;;-0.77;66.38;96128.75;5010504;28;20183;-72
2021/04/04 04:42:51;;;;;;;8.63;3.60;;;;;;;-0.76;65.67;96124.47;5010318;28;20194;-72
2021/04/04 04:45:24;;;;;;;6.70;4.23;;;;;;;-0.74;65.69;96123.50;5012022;28;20214;-72
2021/04/04 04:47:54;;;;;;;8.90;3.93;;;;;;;-0.74;66.35;96118.41;5014471;28;20171;-72
2021/04/04 04:50:24;;;;;;;8.90;3.77;;;;;;;-0.71;66.30;96122.56;5014485;28;20171;-72
2021/04/04 04:52:50;;;;;;;5.60;3.80;;;;;;;-0.68;66.15;96128.38;4997845;28;20221;-72
2021/04/04 04:55:17;;;;;;;8.27;3.33;;;;;;;-0.63;66.51;96123.06;5014092;28;20171;-72
2021/04/04 04:57:43;;;;;;;10.20;3.10;;;;;;;-0.63;66.44;96120.50;5014149;28;20263;-72
2021/04/04 05:00:09;;;;;;;10.13;3.97;;;;;;;-0.62;66.29;96114.50;5014285;28;20198;-72
2021/04/04 05:02:38;;;;;;;9.07;4.43;;;;;;;-0.56;65.88;96114.25;4997644;28;20211;-72
2021/04/04 05:05:06;;;;;;;10.73;4.43;;;;;;;-0.52;65.88;96125.16;5015092;28;20706;-72
2021/04/04 05:07:40;;;;;;;8.93;4.80;;;;;;;-0.52;66.44;96123.44;4997862;28;20174;-73
2021/04/04 05:10:10;;;;;;;8.90;4.20;;;;;;;-0.45;66.42;96126.53;5014026;28;20671;-72
2021/04/04 05:12:44;;;;;;;7.93;4.43;;;;;;;-0.38;66.11;96123.66;5013961;28;20214;-72
2021/04/04 05:15:10;;;;;;;7.13;3.47;;;;;;;-0.35;66.38;96120.97;5013806;28;20169;-72
2021/04/04 05:17:36;;;;;;;7.83;4.10;;;;;;;-0.28;65.62;96121.50;5013917;28;20184;-72
2021/04/04 05:20:04;;;;;;;7.83;4.20;;;;;;;-0.23;65.97;96123.88;5013840;28;20225;-72
2021/04/04 05:22:30;;;;;;;13.73;4.87;;;;;;;-0.19;65.74;96118.56;5013713;28;20282;-72
2021/04/04 05:24:57;;;;;;;12.33;4.43;;;;;;;-0.10;65.48;96124.97;5014660;28;20294;-72
2021/04/04 05:27:22;;;;;;;13.83;4.93;;;;;;;-0.04;65.33;96128.09;5013712;28;20175;-72
2021/04/04 05:29:48;;;;;;;8.13;4.67;;;;;;;0.03;65.55;96130.38;5013622;28;20189;-71
2021/04/04 05:32:13;;;;;;;7.67;3.83;;;;;;;0.05;65.08;96126.84;4997271;28;20183;-72
2021/04/04 05:34:39;;;;;;;9.37;4.00;;;;;;;0.14;65.23;96131.53;5013339;28;20271;-72
2021/04/04 05:37:07;;;;;;;6.77;3.80;;;;;;;0.19;64.90;96132.16;5013800;28;20167;-71
2021/04/04 05:39:36;;;;;;;9.67;4.20;;;;;;;0.26;65.07;96130.13;5014868;28;20178;-72
2021/04/04 05:42:03;;;;;;;6.30;3.47;;;;;;;0.35;64.19;96134.81;5013594;28;20267;-72
2021/04/04 05:44:47;;;;;;;8.67;3.60;;;;;;;0.48;64.43;96123.13;5012529;28;20199;-72
2021/04/04 05:47:31;;;;;;;6.20;3.67;;;;;;;0.58;63.70;96128.63;5024648;28;20182;-71
2021/04/04 05:50:15;;;;;;;8.67;3.43;;;;;;;0.71;63.36;96127.16;5029929;28;20229;-72
2021/04/04 05:52:46;;;;;;;8.37;3.10;;;;;;;0.76;63.44;96121.81;5024848;28;20213;-73
2021/04/04 05:55:16;;;;;;;5.90;3.60;;;;;;;0.83;62.76;96124.00;5047213;28;20178;-73
2021/04/04 05:57:48;;;;;;;9.97;4.27;;;;;;;0.88;62.99;96126.31;5015620;28;20198;-73
2021/04/04 06:00:15;;;;;;;10.83;3.77;;;;;;;1.01;62.79;96118.88;5014160;28;20241;-73
2021/04/04 06:02:59;;;;;;;11.83;3.67;;;;;;;1.10;62.53;96123.56;5031653;28;20933;-72
2021/04/04 06:05:37;;;;;;;8.50;3.87;;;;;;;1.23;62.20;96121.19;5032329;28;20857;-72
2021/04/04 06:08:47;;;;;;;11.03;4.07;;;;;;;1.29;61.71;96126.84;5023247;28;20554;-73
2021/04/04 06:11:32;;;;;;;8.10;3.77;;;;;;;1.31;61.16;96129.31;4956485;28;20215;-72
2021/04/04 06:14:43;;;;;;;8.50;3.47;;;;;;;1.39;61.30;96128.03;4956479;28;20242;-73
2021/04/04 06:17:28;;;;;;;8.10;3.40;;;;;;;1.53;61.04;96123.94;4965054;28;20192;-72
2021/04/04 06:20:19;;;;;;;5.70;3.27;;;;;;;1.68;60.77;96133.41;4956544;28;20181;-72
2021/04/04 06:22:53;;;;;;;9.17;3.57;;;;;;;1.84;60.59;96126.56;4988494;28;20216;-72
2021/04/04 06:25:34;;;;;;;7.87;3.83;;;;;;;1.91;60.42;96129.63;4989086;28;20267;-73
2021/04/04 06:28:18;;;;;;;9.13;3.73;;;;;;;2.05;60.18;96121.22;4975506;28;20190;-73
2021/04/04 06:30:52;;;;;;;10.73;4.07;;;;;;;2.15;60.22;96122.38;4975676;28;20260;-73
2021/04/04 06:33:23;;;;;;;10.67;4.47;;;;;;;2.24;59.55;96121.88;4959184;28;20211;-73
2021/04/04 06:35:58;;;;;;;6.60;3.70;;;;;;;2.44;58.73;96120.78;4975211;28;20193;-73
2021/04/04 06:38:50;;;;;;;13.50;5.43;;;;;;;2.69;56.46;96120.28;4975444;28;20203;-73
2021/04/04 06:41:39;;;;;;;10.57;4.00;;;;;;;2.79;56.03;96122.22;4987113;28;20194;-73
2021/04/04 06:44:15;;;;;;;11.13;4.17;;;;;;;2.92;55.99;96124.94;5048656;28;20214;-73
2021/04/04 06:46:43;;;;;;;13.40;4.67;;;;;;;2.94;55.50;96128.25;5031954;28;20194;-72
2021/04/04 06:49:39;;;;;;;9.73;4.70;;;;;;;3.07;55.12;96134.31;5033095;28;20171;-73
2021/04/04 06:52:18;;;;;;;8.47;4.17;;;;;;;3.17;55.60;96134.63;5033131;28;20180;-72
2021/04/04 06:55:05;;;;;;;8.70;3.53;;;;;;;3.19;55.47;96135.38;5015001;28;20286;-72
2021/04/04 06:57:45;;;;;;;9.73;3.93;;;;;;;3.31;54.80;96136.41;5031807;28;20178;-72
2021/04/04 07:00:12;;;;;;;10.00;4.10;;;;;;;3.37;54.46;96142.00;5031831;28;20600;-72
2021/04/04 07:03:08;;;;;;;9.20;4.20;;;;;;;3.37;54.11;96141.19;5014837;28;20183;-72
2021/04/04 07:06:09;;;;;;;9.07;3.77;;;;;;;3.45;54.10;96149.25;5031553;28;20705;-72
2021/04/04 07:08:49;;;;;;;9.17;3.77;;;;;;;3.47;54.32;96142.28;4955156;28;20198;-73
2021/04/04 07:11:32;;;;;;;8.00;3.70;;;;;;;3.54;54.01;96148.72;4955582;28;20239;-72
2021/04/04 07:14:33;;;;;;;8.03;3.67;;;;;;;3.58;53.69;96142.47;4971478;28;20217;-72
2021/04/04 07:17:45;;;;;;;7.47;3.93;;;;;;;3.64;53.51;96149.84;4912767;29;20206;-72
2021/04/04 07:20:25;;;;;;;8.17;3.67;;;;;;;3.76;52.74;96155.97;4882596;29;20297;-72
2021/04/04 07:23:16;;;;;;;10.10;3.87;;;;;;;3.80;53.22;96154.03;4897465;29;20213;-73
2021/04/04 07:25:48;;;;;;;11.53;4.63;;;;;;;3.90;52.92;96156.00;4892100;29;20291;-72
2021/04/04 07:28:55;;;;;;;10.40;4.10;;;;;;;3.99;52.72;96149.47;4901170;29;20193;-72
2021/04/04 07:31:27;;;;;;;7.97;4.53;;;;;;;4.02;53.57;96148.44;4894475;29;20207;-72
2021/04/04 07:34:04;;;;;;;9.37;5.33;;;;;;;4.18;52.95;96151.75;4894858;29;20216;-72
2021/04/04 07:36:50;;;;;;;11.00;4.70;;;;;;;4.08;54.01;96150.66;4894895;29;20190;-73
2021/04/04 07:39:49;;;;;;;12.87;5.13;;;;;;;4.09;53.95;96149.72;4887622;29;20198;-73
2021/04/04 07:42:33;;;;;;;13.37;4.83;;;;;;;4.20;53.97;96155.88;4911840;29;20297;-72
2021/04/04 07:45:18;;;;;;;11.97;5.27;;;;;;;4.17;53.99;96156.06;4946099;28;20216;-72
2021/04/04 07:47:54;;;;;;;9.07;4.50;;;;;;;4.28;53.69;96154.56;4971128;28;20184;-71
2021/04/04 07:50:23;;;;;;;10.93;5.50;;;;;;;4.38;54.17;96161.63;4969844;28;20694;-72
2021/04/04 07:53:03;;;;;;;9.60;4.60;;;;;;;4.37;53.07;96151.44;5026284;28;20206;-72
2021/04/04 07:55:38;;;;;;;14.23;4.93;;;;;;;4.43;53.32;96154.47;5027124;28;20267;-74
2021/04/04 07:58:22;;;;;;;9.07;4.90;;;;;;;4.38;52.73;96150.50;5030552;28;20266;-73
2021/04/04 08:00:56;;;;;;;10.10;4.73;;;;;;;4.47;53.72;96150.75;5025811;28;20217;-73
2021/04/04 08:03:27;;;;;;;12.70;7.10;;;;;;;4.60;53.64;96155.16;5041121;28;20737;-73
2021/04/04 08:05:59;;;;;;;7.03;4.67;;;;;;;4.83;52.70;96142.47;5024674;28;20544;-72
2021/04/04 08:08:31;;;;;;;11.30;4.83;;;;;;;4.89;52.95;96141.25;5010231;28;20179;-73
2021/04/04 08:10:59;;;;;;;11.60;5.00;;;;;;;5.03;52.89;96142.94;5025440;28;20198;-73
2021/04/04 08:13:36;;;;;;;8.00;4.97;;;;;;;5.05;51.39;96151.41;5024552;28;20246;-72
2021/04/04 08:16:11;;;;;;;12.77;5.67;;;;;;;4.96;51.61;96147.66;5046891;28;20193;-71
2021/04/04 08:18:36;;;;;;;12.57;5.37;;;;;;;5.02;52.22;96146.44;5031494;28;20170;-71
2021/04/04 08:21:04;;;;;;;11.60;4.47;;;;;;;5.02;52.07;96141.28;5029856;28;20329;-71
2021/04/04 08:23:36;;;;;;;9.00;4.80;;;;;;;5.32;52.19;96139.31;5026769;28;20198;-72
2021/04/04 08:26:12;;;;;;;10.53;5.13;;;;;;;5.36;51.44;96151.03;5021303;28;20202;-71
2021/04/04 08:28:42;;;;;;;10.13;4.77;;;;;;;5.38;50.97;96153.50;5046748;28;20205;-71
2021/04/04 08:31:10;;;;;;;7.87;4.77;;;;;;;5.39;51.33;96153.44;5030300;28;20273;-72
2021/04/04 08:33:40;;;;;;;10.70;5.10;;;;;;;5.36;50.93;96150.22;5027989;28;20678;-71
2021/04/04 08:36:07;;;;;;;11.57;4.47;;;;;;;5.47;50.27;96145.16;5010285;28;20646;-71
2021/04/04 08:38:42;;;;;;;9.83;4.97;;;;;;;5.70;49.71;96148.78;5010348;28;20178;-71
2021/04/04 08:41:07;;;;;;;7.57;4.70;;;;;;;5.65;49.02;96148.25;5021872;28;20235;-72
2021/04/04 08:43:34;;;;;;;11.07;4.73;;;;;;;6.03;49.06;96150.06;5030232;28;20605;-72
2021/04/04 08:46:20;;;;;;;10.40;4.87;;;;;;;6.05;47.17;96145.63;5024391;28;20230;-71
2021/04/04 08:48:46;;;;;;;10.10;4.63;;;;;;;6.14;47.24;96145.81;5030020;28;20174;-71
2021/04/04 08:51:14;;;;;;;8.40;3.60;;;;;;;6.20;45.32;96141.97;5030021;28;20178;-72
2021/04/04 08:53:41;;;;;;;8.13;5.10;;;;;;;6.19;46.28;96148.06;5031172;28;20603;-71
2021/04/04 08:56:07;;;;;;;7.87;4.03;;;;;;;6.02;46.95;96140.69;5024690;28;20605;-71
2021/04/04 08:58:38;;;;;;;8.97;4.37;;;;;;;5.87;47.23;96155.41;5026833;28;20179;-71
2021/04/04 09:01:09;;;;;;;7.57;4.27;;;;;;;5.75;47.46;96141.59;5010133;28;20241;-71
2021/04/04 09:03:37;;;;;;;9.67;4.67;;;;;;;5.64;47.98;96138.91;4993773;28;20207;-71
2021/04/04 09:06:05;;;;;;;8.17;4.07;;;;;;;5.64;47.37;96144.88;5010995;28;20297;-71
2021/04/04 09:08:31;;;;;;;10.33;4.17;;;;;;;5.74;47.24;96145.06;5017726;28;20197;-71
2021/04/04 09:10:57;;;;;;;10.20;4.07;;;;;;;5.76;46.91;96142.41;5013393;28;20549;-71
2021/04/04 09:13:23;;;;;;;8.93;4.17;;;;;;;5.81;45.73;96148.06;5029384;28;20217;-71
2021/04/04 09:15:53;;;;;;;9.47;4.00;;;;;;;5.78;46.44;96143.94;5028504;28;20203;-71
2021/04/04 09:18:19;;;;;;;6.40;3.33;;;;;;;5.74;45.32;96146.81;5029549;28;20266;-71
2021/04/04 09:20:46;;;;;;;8.70;3.83;;;;;;;5.79;45.98;96143.03;5029422;28;20325;-71
2021/04/04 09:23:12;;;;;;;7.37;3.80;;;;;;;5.87;46.44;96142.50;5013181;28;20305;-71
2021/04/04 09:25:47;;;;;;;8.47;4.20;;;;;;;6.00;46.57;96134.78;5029315;28;20232;-71
2021/04/04 09:28:12;;;;;;;11.63;4.20;;;;;;;6.11;46.47;96132.31;5029872;28;20202;-71
2021/04/04 09:30:39;;;;;;;5.97;3.97;;;;;;;6.20;46.13;96141.97;5030584;28;20261;-71
2021/04/04 09:33:07;;;;;;;7.90;3.50;;;;;;;6.34;46.57;96134.09;5031301;28;20202;-71
2021/04/04 09:35:33;;;;;;;8.33;4.10;;;;;;;6.41;45.77;96132.75;5032798;28;20178;-71
2021/04/04 09:38:11;;;;;;;8.40;3.63;;;;;;;6.63;46.76;96128.66;5033219;28;20193;-71
2021/04/04 09:40:37;;;;;;;6.67;4.10;;;;;;;6.61;45.29;96139.06;5033082;28;20269;-73
2021/04/04 09:43:12;;;;;;;9.33;4.37;;;;;;;6.54;44.15;96130.13;5032964;28;20206;-71
2021/04/04 09:45:37;;;;;;;6.90;3.57;;;;;;;6.54;44.13;96127.56;5033687;28;20259;-71
2021/04/04 09:48:25;;;;;;;8.20;4.20;;;;;;;6.64;43.72;96132.88;5034230;28;20260;-71
2021/04/04 09:51:12;;;;;;;6.83;3.77;;;;;;;6.70;44.35;96124.69;5033201;28;20187;-71
2021/04/04 09:53:40;;;;;;;9.63;4.03;;;;;;;6.63;44.14;96129.47;5033010;28;20565;-71
2021/04/04 09:56:10;;;;;;;6.33;3.80;;;;;;;6.55;44.18;96125.78;5032758;28;20261;-71
2021/04/04 09:58:43;;;;;;;6.37;3.43;;;;;;;6.46;44.02;96122.94;5034225;28;20626;-71
2021/04/04 10:01:21;;;;;;;5.90;3.60;;;;;;;6.45;44.02;96121.28;5032922;28;20182;-71
2021/04/04 10:04:06;;;;;;;8.33;3.57;;;;;;;6.58;43.49;96125.56;5032825;28;20260;-71
2021/04/04 10:06:36;;;;;;;5.40;3.63;;;;;;;6.30;42.97;96131.84;5027815;28;20187;-71
2021/04/04 10:09:08;;;;;;;7.47;3.57;;;;;;;6.30;43.58;96132.66;5030227;28;20213;-71
2021/04/04 10:11:34;;;;;;;5.90;2.77;;;;;;;6.36;42.17;96121.94;5030161;28;20583;-71
2021/04/04 10:14:11;;;;;;;7.17;3.37;;;;;;;6.45;41.91;96121.28;5028151;28;20221;-71
2021/04/04 10:16:37;;;;;;;4.33;2.83;;;;;;;6.79;41.63;96116.28;5029285;28;20559;-72
2021/04/04 10:19:07;;;;;;;5.77;3.37;;;;;;;7.08;40.37;96109.03;5022443;28;20255;-71
2021/04/04 10:21:39;;;;;;;6.57;3.30;;;;;;;7.05;40.80;96109.22;5025459;28;20681;-71
2021/04/04 10:24:25;;;;;;;5.80;3.27;;;;;;;6.95;39.76;96110.84;5016596;28;20607;-72
2021/04/04 10:27:26;;;;;;;5.47;3.00;;;;;;;6.99;40.32;96110.50;5033786;28;20190;-70
2021/04/04 10:30:17;;;;;;;4.50;3.10;;;;;;;7.10;40.66;96107.13;5033775;28;20245;-72
2021/04/04 10:32:50;;;;;;;8.47;3.37;;;;;;;7.14;41.81;96102.56;5032583;28;20252;-72
2021/04/04 10:35:29;;;;;;;10.50;3.53;;;;;;;7.02;40.13;96096.53;5029724;28;20248;-71
2021/04/04 10:38:05;;;;;;;7.97;3.40;;;;;;;7.07;39.96;96097.88;5032082;28;20186;-71
2021/04/04 10:40:50;;;;;;;7.63;3.63;;;;;;;6.96;41.04;96099.56;5032467;28;20178;-70
2021/04/04 10:43:18;;;;;;;5.47;3.13;;;;;;;6.99;40.48;96105.34;5033402;28;20662;-71
2021/04/04 10:46:01;;;;;;;7.60;3.53;;;;;;;6.98;40.72;96092.53;5032185;28;20203;-71
2021/04/04 10:48:30;;;;;;;6.60;3.20;;;;;;;6.96;41.86;96102.16;5032026;28;20214;-71
2021/04/04 10:50:56;;;;;;;9.07;3.60;;;;;;;6.98;41.17;96095.97;5032009;28;20261;-70
2021/04/04 10:53:22;;;;;;;6.97;3.20;;;;;;;6.99;40.21;96094.19;5033252;28;20218;-71
2021/04/04 10:55:48;;;;;;;4.60;3.10;;;;;;;7.12;40.24;96087.19;5031729;28;20182;-70
2021/04/04 10:58:14;;;;;;;6.27;3.37;;;;;;;7.28;39.32;96079.13;5015128;28;20568;-71
2021/04/04 11:00:42;;;;;;;3.97;2.83;;;;;;;7.25;39.52;96081.94;5031579;28;20194;-70
2021/04/04 11:03:08;;;;;;;5.03;3.37;;;;;;;7.19;40.22;96079.81;5031732;28;20198;-70
2021/04/04 11:05:34;;;;;;;6.13;3.97;;;;;;;7.48;40.23;96077.63;5031312;28;20697;-71
2021/04/04 11:07:59;;;;;;;6.07;3.30;;;;;;;7.82;40.87;96078.47;5031696;28;20185;-70
2021/04/04 11:10:24;;;;;;;5.87;3.27;;;;;;;8.15;40.40;96078.47;5031634;28;20178;-70
2021/04/04 11:12:50;;;;;;;5.93;3.00;;;;;;;8.41;38.78;96076.44;5031412;28;20214;-70
2021/04/04 11:15:16;;;;;;;8.30;3.50;;;;;;;8.71;38.42;96080.94;5029203;28;20191;-71
2021/04/04 11:17:44;;;;;;;6.47;3.30;;;;;;;8.87;37.76;96075.34;5024464;28;20186;-71
2021/04/04 11:20:11;;;;;;;7.37;4.23;;;;;;;8.73;37.10;96066.09;5024381;28;20608;-73
2021/04/04 11:22:39;;;;;;;4.87;3.20;;;;;;;8.64;37.37;96060.84;5030309;28;20240;-70
2021/04/04 11:25:05;;;;;;;8.00;2.83;;;;;;;8.47;38.28;96060.41;5014392;28;20229;-71
2021/04/04 11:27:37;;;;;;;4.30;3.00;;;;;;;8.85;38.29;96059.13;5032358;28;20753;-72
2021/04/04 11:30:04;;;;;;;5.97;3.43;;;;;;;9.21;39.13;96059.66;5025868;28;20190;-71
2021/04/04 11:32:29;;;;;;;4.53;2.80;;;;;;;9.29;37.73;96052.88;5025383;28;20209;-71
2021/04/04 11:35:03;;;;;;;3.97;3.07;;;;;;;9.47;36.46;96057.47;5026238;28;20183;-72
2021/04/04 11:37:28;;;;;;;5.00;3.23;;;;;;;9.33;35.82;96054.25;5011026;28;20306;-71
2021/04/04 11:40:17;;;;;;;7.33;3.60;;;;;;;9.40;36.10;96051.16;5028134;28;20261;-71
2021/04/04 11:42:45;;;;;;;5.43;3.50;;;;;;;9.14;37.12;96042.97;5030060;28;20198;-71
2021/04/04 11:45:11;;;;;;;4.90;3.10;;;;;;;9.40;37.34;96049.38;5030003;28;20225;-71
2021/04/04 11:47:37;;;;;;;5.53;3.40;;;;;;;9.14;36.67;96048.97;5014109;28;20629;-72
2021/04/04 11:50:21;;;;;;;6.90;4.00;;;;;;;8.40;37.12;96048.09;5030534;28;20314;-71
2021/04/04 11:52:48;;;;;;;6.83;3.00;;;;;;;8.42;37.28;96046.22;5031935;28;20259;-71
2021/04/04 11:55:16;;;;;;;4.83;2.97;;;;;;;8.54;37.60;96040.03;5029532;28;20232;-72
2021/04/04 11:57:44;;;;;;;5.87;2.97;;;;;;;8.96;38.33;96038.34;5030945;28;20583;-71
2021/04/04 12:00:11;;;;;;;6.40;3.07;;;;;;;9.00;37.48;96033.72;5030948;28;20206;-71